createdAt,value
2019-03-12T00:00:09.005Z,85.17
2019-03-12T00:01:09.009Z,84.69
2019-03-12T00:02:09.020Z,84.41
2019-03-12T00:03:09.103Z,84.12
2019-03-12T00:04:09.037Z,84.22
2019-03-12T00:05:09.116Z,84.12
2019-03-12T00:06:09.055Z,83.94
2019-03-12T00:07:09.074Z,84.12
2019-03-12T00:08:09.030Z,83.97
2019-03-12T00:09:09.227Z,84.07
2019-03-12T00:10:09.092Z,84.17
2019-03-12T00:11:09.072Z,83.59
2019-03-12T00:12:09.083Z,83.40
2019-03-12T00:13:09.067Z,83.03
2019-03-12T00:14:09.184Z,82.93
2019-03-12T00:15:09.048Z,83.03
2019-03-12T00:16:09.107Z,82.74
2019-03-12T00:17:09.106Z,83.03
2019-03-12T00:18:09.062Z,83.22
2019-03-12T00:19:09.076Z,82.84
2019-03-12T00:20:09.091Z,83.03
2019-03-12T00:21:09.091Z,83.17
2019-03-12T00:22:09.071Z,82.98
2019-03-12T00:23:09.077Z,82.98
2019-03-12T00:24:09.139Z,83.17
2019-03-12T00:25:09.109Z,82.70
2019-03-12T00:26:09.088Z,83.17
2019-03-12T00:27:09.075Z,82.70
2019-03-12T00:28:09.081Z,82.70
2019-03-12T00:29:09.082Z,82.79
2019-03-12T00:30:09.142Z,82.42
2019-03-12T00:31:09.096Z,82.32
2019-03-12T00:32:09.116Z,82.89
2019-03-12T00:33:09.114Z,82.79
2019-03-12T00:34:09.129Z,82.51
2019-03-12T00:35:09.128Z,82.13
2019-03-12T00:36:09.155Z,82.89
2019-03-12T00:37:09.101Z,82.89
2019-03-12T00:38:09.111Z,82.60
2019-03-12T00:39:09.124Z,82.51
2019-03-12T00:40:09.127Z,82.51
2019-03-12T00:41:09.182Z,82.42
2019-03-12T00:42:09.131Z,81.56
2019-03-12T00:43:09.121Z,81.94
2019-03-12T00:44:09.271Z,82.04
2019-03-12T00:45:09.149Z,81.75
2019-03-12T00:46:09.154Z,81.85
2019-03-12T00:47:09.178Z,81.56
2019-03-12T00:48:09.162Z,81.75
2019-03-12T00:49:09.138Z,81.56
2019-03-12T00:50:09.142Z,81.18
2019-03-12T00:51:09.184Z,81.37
2019-03-12T00:52:09.160Z,81.09
2019-03-12T00:53:09.158Z,81.47
2019-03-12T00:54:09.149Z,81.47
2019-03-12T00:55:09.173Z,81.56
2019-03-12T00:56:09.233Z,81.56
2019-03-12T00:57:09.172Z,81.37
2019-03-12T00:58:09.177Z,81.66
2019-03-12T00:59:09.194Z,81.66
2019-03-12T01:00:09.192Z,81.85
2019-03-12T01:01:09.204Z,81.56
2019-03-12T01:02:09.206Z,81.94
2019-03-12T01:03:09.196Z,81.75
2019-03-12T01:04:09.231Z,81.75
2019-03-12T01:05:09.195Z,81.75
2019-03-12T01:06:09.193Z,81.56
2019-03-12T01:07:09.239Z,81.47
2019-03-12T01:08:09.215Z,81.75
2019-03-12T01:09:09.217Z,81.75
2019-03-12T01:10:09.203Z,81.47
2019-03-12T01:11:09.201Z,81.66
2019-03-12T01:12:09.213Z,81.47
2019-03-12T01:13:09.276Z,81.56
2019-03-12T01:14:09.223Z,80.99
2019-03-12T01:15:09.204Z,80.99
2019-03-12T01:16:09.217Z,81.56
2019-03-12T01:17:09.220Z,81.47
2019-03-12T01:18:09.227Z,81.23
2019-03-12T01:19:09.253Z,81.32
2019-03-12T01:20:09.233Z,81.41
2019-03-12T01:21:09.227Z,81.51
2019-03-12T01:22:09.283Z,81.32
2019-03-12T01:23:09.330Z,80.99
2019-03-12T01:24:09.234Z,81.37
2019-03-12T01:25:09.247Z,81.70
2019-03-12T01:26:09.235Z,81.75
2019-03-12T01:27:09.277Z,81.75
2019-03-12T01:28:09.242Z,81.60
2019-03-12T01:29:09.280Z,81.79
2019-03-12T01:30:09.260Z,81.98
2019-03-12T01:31:09.275Z,81.60
2019-03-12T01:32:09.327Z,81.41
2019-03-12T01:33:09.273Z,81.79
2019-03-12T01:34:09.280Z,81.51
2019-03-12T01:35:09.303Z,81.04
2019-03-12T01:36:09.261Z,81.79
2019-03-12T01:37:09.281Z,81.79
2019-03-12T01:38:09.290Z,81.60
2019-03-12T01:39:09.317Z,81.23
2019-03-12T01:40:09.288Z,81.60
2019-03-12T01:41:09.288Z,81.60
2019-03-12T01:42:09.319Z,82.08
2019-03-12T01:43:09.300Z,81.23
2019-03-12T01:44:09.324Z,81.13
2019-03-12T01:45:09.321Z,81.23
2019-03-12T01:46:09.301Z,81.13
2019-03-12T01:47:09.307Z,81.79
2019-03-12T01:48:09.315Z,81.60
2019-03-12T01:49:09.324Z,81.51
2019-03-12T01:50:09.354Z,82.08
2019-03-12T01:51:09.338Z,81.23
2019-03-12T01:52:09.336Z,81.32
2019-03-12T01:53:09.352Z,81.70
2019-03-12T01:54:09.313Z,81.04
2019-03-12T01:55:09.329Z,81.23
2019-03-12T01:56:09.362Z,81.23
2019-03-12T01:57:09.336Z,81.13
2019-03-12T01:58:09.359Z,81.04
2019-03-12T01:59:09.338Z,81.23
2019-03-12T02:00:09.363Z,81.04
2019-03-12T02:01:09.344Z,81.23
2019-03-12T02:02:09.367Z,81.23
2019-03-12T02:03:09.367Z,80.84
2019-03-12T02:04:09.356Z,80.37
2019-03-12T02:05:09.363Z,80.60
2019-03-12T02:06:09.391Z,80.65
2019-03-12T02:07:09.442Z,80.46
2019-03-12T02:08:09.369Z,80.37
2019-03-12T02:09:09.359Z,80.03
2019-03-12T02:10:09.374Z,79.74
2019-03-12T02:11:09.369Z,80.03
2019-03-12T02:12:09.386Z,79.80
2019-03-12T02:13:09.394Z,79.74
2019-03-12T02:14:09.414Z,79.84
2019-03-12T02:15:09.394Z,80.88
2019-03-12T02:16:09.397Z,79.94
2019-03-12T02:17:09.409Z,80.03
2019-03-12T02:18:09.425Z,79.94
2019-03-12T02:19:09.425Z,80.13
2019-03-12T02:20:09.419Z,79.46
2019-03-12T02:21:09.433Z,80.13
2019-03-12T02:22:09.399Z,79.74
2019-03-12T02:23:09.466Z,79.94
2019-03-12T02:24:09.418Z,80.03
2019-03-12T02:25:09.409Z,80.22
2019-03-12T02:26:09.428Z,79.17
2019-03-12T02:27:09.417Z,79.27
2019-03-12T02:28:09.451Z,79.17
2019-03-12T02:29:09.458Z,79.36
2019-03-12T02:30:09.432Z,79.08
2019-03-12T02:31:09.451Z,78.42
2019-03-12T02:32:09.448Z,78.80
2019-03-12T02:33:09.443Z,78.70
2019-03-12T02:34:09.480Z,78.89
2019-03-12T02:35:09.466Z,78.80
2019-03-12T02:36:09.529Z,78.70
2019-03-12T02:37:09.458Z,78.70
2019-03-12T02:38:09.602Z,78.80
2019-03-12T02:39:09.526Z,78.70
2019-03-12T02:40:09.496Z,78.89
2019-03-12T02:41:09.463Z,78.70
2019-03-12T02:42:12.485Z,79.08
2019-03-12T02:43:09.482Z,78.61
2019-03-12T02:44:09.485Z,78.61
2019-03-12T02:45:09.544Z,79.65
2019-03-12T02:46:09.479Z,78.61
2019-03-12T02:47:09.508Z,78.61
2019-03-12T02:48:09.501Z,78.70
2019-03-12T02:49:10.144Z,78.80
2019-03-12T02:50:09.488Z,78.99
2019-03-12T02:51:09.528Z,78.99
2019-03-12T02:52:09.505Z,78.80
2019-03-12T02:53:09.505Z,78.89
2019-03-12T02:54:09.531Z,78.80
2019-03-12T02:55:09.648Z,78.80
2019-03-12T02:56:09.570Z,78.42
2019-03-12T02:57:09.524Z,78.51
2019-03-12T02:58:09.521Z,78.03
2019-03-12T02:59:09.531Z,77.94
2019-03-12T03:00:09.540Z,78.13
2019-03-12T03:01:09.538Z,78.13
2019-03-12T03:02:09.552Z,78.42
2019-03-12T03:03:09.550Z,78.23
2019-03-12T03:04:09.546Z,77.37
2019-03-12T03:05:09.550Z,77.56
2019-03-12T03:06:09.558Z,77.28
2019-03-12T03:07:09.579Z,77.47
2019-03-12T03:08:09.593Z,77.56
2019-03-12T03:09:09.579Z,77.47
2019-03-12T03:10:09.573Z,77.28
2019-03-12T03:11:09.571Z,77.66
2019-03-12T03:12:09.570Z,78.03
2019-03-12T03:13:09.603Z,77.98
2019-03-12T03:14:09.567Z,77.28
2019-03-12T03:15:09.587Z,78.17
2019-03-12T03:16:09.584Z,78.32
2019-03-12T03:17:09.621Z,78.03
2019-03-12T03:18:09.730Z,78.03
2019-03-12T03:19:09.590Z,78.17
2019-03-12T03:20:09.598Z,78.36
2019-03-12T03:21:09.604Z,77.56
2019-03-12T03:22:09.597Z,77.56
2019-03-12T03:23:09.594Z,77.60
2019-03-12T03:24:09.652Z,77.41
2019-03-12T03:25:09.614Z,77.89
2019-03-12T03:26:09.607Z,77.51
2019-03-12T03:27:09.631Z,78.17
2019-03-12T03:28:09.624Z,77.22
2019-03-12T03:29:09.616Z,78.27
2019-03-12T03:30:09.620Z,77.94
2019-03-12T03:31:09.678Z,78.36
2019-03-12T03:32:09.745Z,78.45
2019-03-12T03:33:09.767Z,77.98
2019-03-12T03:34:09.663Z,77.60
2019-03-12T03:35:09.671Z,77.31
2019-03-12T03:36:09.639Z,77.51
2019-03-12T03:37:09.668Z,77.31
2019-03-12T03:38:09.746Z,77.98
2019-03-12T03:39:09.715Z,78.36
2019-03-12T03:40:09.680Z,78.17
2019-03-12T03:41:09.664Z,77.98
2019-03-12T03:42:09.681Z,78.36
2019-03-12T03:43:09.760Z,78.36
2019-03-12T03:44:09.695Z,78.17
2019-03-12T03:45:09.701Z,78.08
2019-03-12T03:46:09.700Z,77.98
2019-03-12T03:47:09.723Z,77.12
2019-03-12T03:48:09.723Z,77.98
2019-03-12T03:49:09.699Z,78.27
2019-03-12T03:50:09.706Z,77.03
2019-03-12T03:51:09.706Z,77.22
2019-03-12T03:52:09.721Z,77.98
2019-03-12T03:53:09.728Z,78.17
2019-03-12T03:54:09.708Z,77.51
2019-03-12T03:55:09.767Z,77.98
2019-03-12T03:56:09.721Z,77.51
2019-03-12T03:57:09.728Z,77.60
2019-03-12T03:58:09.732Z,77.79
2019-03-12T03:59:09.742Z,77.79
2019-03-12T04:00:09.752Z,77.51
2019-03-12T04:01:09.733Z,77.60
2019-03-12T04:02:09.725Z,77.31
2019-03-12T04:03:09.729Z,78.27
2019-03-12T04:04:09.768Z,77.41
2019-03-12T04:05:09.782Z,77.51
2019-03-12T04:06:09.773Z,77.89
2019-03-12T04:07:09.859Z,77.60
2019-03-12T04:08:09.760Z,77.60
2019-03-12T04:09:09.795Z,77.51
2019-03-12T04:10:09.759Z,77.70
2019-03-12T04:11:09.760Z,77.51
2019-03-12T04:12:09.766Z,77.41
2019-03-12T04:13:09.799Z,76.84
2019-03-12T04:14:09.786Z,76.93
2019-03-12T04:15:09.796Z,76.93
2019-03-12T04:16:09.813Z,77.31
2019-03-12T04:17:09.806Z,77.12
2019-03-12T04:18:09.795Z,76.65
2019-03-12T04:19:09.825Z,77.12
2019-03-12T04:20:09.846Z,76.93
2019-03-12T04:21:09.840Z,77.12
2019-03-12T04:22:09.823Z,76.84
2019-03-12T04:23:09.804Z,76.56
2019-03-12T04:24:09.825Z,76.56
2019-03-12T04:25:09.811Z,76.75
2019-03-12T04:26:09.855Z,76.84
2019-03-12T04:27:09.855Z,76.84
2019-03-12T04:28:09.817Z,76.84
2019-03-12T04:29:09.854Z,76.56
2019-03-12T04:30:09.824Z,76.75
2019-03-12T04:31:09.894Z,76.65
2019-03-12T04:32:09.845Z,76.46
2019-03-12T04:33:09.963Z,76.65
2019-03-12T04:34:09.845Z,76.75
2019-03-12T04:35:09.899Z,76.84
2019-03-12T04:36:09.851Z,76.75
2019-03-12T04:37:09.902Z,76.37
2019-03-12T04:38:09.887Z,76.65
2019-03-12T04:39:09.882Z,76.37
2019-03-12T04:40:09.889Z,76.56
2019-03-12T04:41:09.904Z,76.37
2019-03-12T04:42:09.870Z,75.89
2019-03-12T04:43:09.883Z,76.08
2019-03-12T04:44:09.902Z,76.27
2019-03-12T04:45:09.923Z,75.99
2019-03-12T04:46:09.878Z,75.89
2019-03-12T04:47:09.904Z,76.37
2019-03-12T04:48:09.983Z,76.84
2019-03-12T04:49:09.905Z,76.37
2019-03-12T04:50:09.888Z,76.27
2019-03-12T04:51:09.928Z,75.99
2019-03-12T04:52:09.922Z,76.37
2019-03-12T04:53:09.904Z,76.37
2019-03-12T04:54:09.918Z,76.37
2019-03-12T04:55:09.924Z,75.99
2019-03-12T04:56:09.942Z,76.18
2019-03-12T04:57:09.919Z,76.08
2019-03-12T04:58:09.933Z,75.60
2019-03-12T04:59:09.954Z,75.42
2019-03-12T05:00:09.931Z,74.75
2019-03-12T05:01:09.953Z,74.85
2019-03-12T05:02:09.957Z,75.13
2019-03-12T05:03:09.971Z,75.23
2019-03-12T05:04:09.960Z,75.32
2019-03-12T05:05:09.950Z,75.51
2019-03-12T05:06:09.977Z,75.04
2019-03-12T05:07:09.992Z,75.32
2019-03-12T05:08:09.970Z,75.60
2019-03-12T05:09:09.970Z,75.42
2019-03-12T05:10:09.989Z,75.32
2019-03-12T05:11:09.983Z,75.60
2019-03-12T05:12:10.036Z,75.32
2019-03-12T05:13:09.992Z,74.94
2019-03-12T05:14:09.991Z,74.94
2019-03-12T05:15:09.993Z,75.60
2019-03-12T05:16:10.020Z,74.85
2019-03-12T05:17:10.003Z,75.23
2019-03-12T05:18:10.021Z,75.23
2019-03-12T05:19:10.080Z,74.27
2019-03-12T05:20:10.024Z,74.37
2019-03-12T05:21:10.017Z,74.27
2019-03-12T05:22:10.056Z,74.37
2019-03-12T05:23:10.016Z,74.27
2019-03-12T05:24:10.030Z,74.18
2019-03-12T05:25:10.015Z,74.66
2019-03-12T05:26:10.027Z,74.47
2019-03-12T05:27:10.040Z,74.47
2019-03-12T05:28:10.043Z,74.75
2019-03-12T05:29:10.036Z,74.56
2019-03-12T05:30:10.036Z,75.32
2019-03-12T05:31:10.066Z,75.23
2019-03-12T05:32:10.060Z,75.04
2019-03-12T05:33:10.053Z,74.85
2019-03-12T05:34:10.082Z,74.08
2019-03-12T05:35:10.079Z,74.18
2019-03-12T05:36:10.073Z,73.99
2019-03-12T05:37:10.068Z,73.61
2019-03-12T05:38:10.066Z,73.14
2019-03-12T05:39:10.072Z,73.61
2019-03-12T05:40:10.111Z,72.95
2019-03-12T05:41:12.292Z,72.85
2019-03-12T05:42:10.067Z,73.04
2019-03-12T05:43:10.078Z,73.23
2019-03-12T05:44:10.090Z,73.52
2019-03-12T05:45:10.102Z,72.75
2019-03-12T05:46:10.115Z,73.04
2019-03-12T05:47:10.100Z,72.95
2019-03-12T05:48:10.105Z,72.66
2019-03-12T05:49:10.117Z,73.33
2019-03-12T05:50:10.126Z,72.09
2019-03-12T05:51:10.139Z,72.19
2019-03-12T05:52:10.122Z,72.56
2019-03-12T05:53:10.124Z,72.75
2019-03-12T05:54:10.118Z,72.75
2019-03-12T05:55:10.152Z,72.09
2019-03-12T05:56:10.166Z,72.28
2019-03-12T05:57:10.128Z,72.95
2019-03-12T05:58:10.160Z,72.85
2019-03-12T05:59:10.133Z,72.75
2019-03-12T06:00:10.155Z,72.85
2019-03-12T06:01:10.161Z,72.95
2019-03-12T06:02:10.175Z,72.56
2019-03-12T06:03:10.161Z,72.28
2019-03-12T06:04:10.161Z,72.19
2019-03-12T06:05:10.154Z,72.38
2019-03-12T06:06:10.152Z,72.56
2019-03-12T06:07:10.210Z,72.75
2019-03-12T06:08:10.171Z,72.19
2019-03-12T06:09:10.196Z,72.38
2019-03-12T06:10:10.186Z,72.19
2019-03-12T06:11:10.179Z,72.56
2019-03-12T06:12:10.181Z,72.56
2019-03-12T06:13:10.249Z,72.38
2019-03-12T06:14:10.187Z,72.28
2019-03-12T06:15:10.207Z,72.09
2019-03-12T06:16:10.243Z,71.90
2019-03-12T06:17:10.206Z,72.00
2019-03-12T06:18:10.256Z,72.19
2019-03-12T06:19:10.226Z,72.09
2019-03-12T06:20:10.217Z,71.81
2019-03-12T06:21:10.239Z,72.09
2019-03-12T06:22:11.759Z,71.43
2019-03-12T06:23:10.264Z,71.04
2019-03-12T06:24:10.251Z,70.95
2019-03-12T06:25:10.272Z,71.14
2019-03-12T06:26:10.224Z,71.23
2019-03-12T06:27:10.248Z,71.52
2019-03-12T06:28:10.257Z,71.81
2019-03-12T06:29:10.292Z,71.62
2019-03-12T06:30:10.298Z,71.14
2019-03-12T06:31:10.245Z,71.04
2019-03-12T06:32:10.403Z,70.86
2019-03-12T06:33:10.262Z,70.76
2019-03-12T06:34:10.281Z,70.67
2019-03-12T06:35:10.327Z,71.04
2019-03-12T06:36:10.275Z,71.04
2019-03-12T06:37:10.278Z,71.04
2019-03-12T06:38:10.299Z,71.04
2019-03-12T06:39:10.270Z,71.14
2019-03-12T06:40:10.278Z,70.76
2019-03-12T06:41:10.338Z,71.14
2019-03-12T06:42:10.280Z,71.04
2019-03-12T06:43:10.339Z,70.57
2019-03-12T06:44:10.359Z,70.95
2019-03-12T06:45:13.361Z,70.57
2019-03-12T06:46:10.366Z,70.57
2019-03-12T06:47:10.310Z,70.38
2019-03-12T06:48:10.340Z,70.57
2019-03-12T06:49:10.366Z,71.33
2019-03-12T06:50:10.327Z,71.14
2019-03-12T06:51:10.343Z,71.52
2019-03-12T06:52:10.384Z,71.04
2019-03-12T06:53:10.328Z,71.71
2019-03-12T06:54:10.322Z,71.62
2019-03-12T06:55:10.372Z,72.09
2019-03-12T06:56:10.338Z,71.52
2019-03-12T06:57:10.337Z,71.37
2019-03-12T06:58:10.365Z,72.22
2019-03-12T06:59:10.384Z,71.37
2019-03-12T07:00:10.387Z,71.56
2019-03-12T07:01:10.411Z,71.18
2019-03-12T07:02:10.380Z,71.27
2019-03-12T07:03:10.372Z,71.18
2019-03-12T07:04:10.364Z,71.18
2019-03-12T07:05:10.379Z,71.18
2019-03-12T07:06:10.391Z,71.56
2019-03-12T07:07:11.418Z,70.79
2019-03-12T07:08:10.397Z,71.18
2019-03-12T07:09:10.440Z,71.08
2019-03-12T07:10:10.423Z,70.61
2019-03-12T07:11:10.539Z,71.56
2019-03-12T07:12:10.435Z,72.03
2019-03-12T07:13:10.407Z,71.56
2019-03-12T07:14:10.420Z,71.02
2019-03-12T07:15:10.459Z,71.41
2019-03-12T07:16:10.492Z,70.64
2019-03-12T07:17:10.461Z,70.93
2019-03-12T07:18:10.423Z,71.12
2019-03-12T07:19:10.432Z,71.75
2019-03-12T07:20:13.194Z,70.89
2019-03-12T07:21:10.455Z,71.18
2019-03-12T07:22:10.483Z,71.41
2019-03-12T07:23:10.498Z,71.78
2019-03-12T07:24:13.153Z,71.59
2019-03-12T07:25:10.448Z,71.02
2019-03-12T07:26:10.452Z,71.12
2019-03-12T07:27:10.478Z,71.78
2019-03-12T07:28:10.518Z,72.16
2019-03-12T07:29:10.494Z,71.88
2019-03-12T07:30:12.881Z,72.07
2019-03-12T07:31:10.548Z,72.45
2019-03-12T07:32:10.490Z,72.35
2019-03-12T07:33:10.524Z,72.64
2019-03-12T07:34:10.500Z,72.07
2019-03-12T07:35:10.508Z,72.26
2019-03-12T07:36:10.489Z,72.45
2019-03-12T07:37:10.508Z,72.64
2019-03-12T07:38:10.501Z,72.07
2019-03-12T07:39:10.608Z,71.69
2019-03-12T07:40:10.503Z,72.64
2019-03-12T07:41:22.778Z,71.88
2019-03-12T07:42:10.518Z,72.55
2019-03-12T07:43:10.580Z,71.88
2019-03-12T07:44:10.542Z,71.78
2019-03-12T07:45:10.613Z,71.78
2019-03-12T07:46:10.535Z,71.41
2019-03-12T07:47:10.565Z,71.31
2019-03-12T07:48:10.556Z,71.22
2019-03-12T07:49:10.632Z,71.69
2019-03-12T07:50:10.571Z,71.44
2019-03-12T07:51:10.574Z,71.15
2019-03-12T07:52:10.633Z,71.15
2019-03-12T07:53:10.565Z,70.87
2019-03-12T07:54:10.576Z,70.87
2019-03-12T07:55:10.633Z,71.15
2019-03-12T07:56:10.570Z,71.53
2019-03-12T07:57:10.626Z,71.34
2019-03-12T07:58:10.617Z,71.72
2019-03-12T07:59:10.593Z,71.15
2019-03-12T08:00:10.611Z,71.53
2019-03-12T08:01:10.711Z,71.63
2019-03-12T08:02:10.608Z,70.77
2019-03-12T08:03:10.610Z,70.68
2019-03-12T08:04:10.643Z,71.00
2019-03-12T08:05:10.678Z,71.09
2019-03-12T08:06:10.670Z,71.09
2019-03-12T08:07:13.025Z,70.72
2019-03-12T08:08:10.629Z,70.81
2019-03-12T08:09:10.651Z,70.52
2019-03-12T08:10:10.652Z,70.52
2019-03-12T08:11:10.726Z,70.43
2019-03-12T08:12:10.677Z,70.14
2019-03-12T08:13:10.683Z,70.43
2019-03-12T08:14:10.658Z,70.33
2019-03-12T08:15:22.645Z,70.52
2019-03-12T08:16:10.684Z,69.95
2019-03-12T08:17:10.755Z,70.33
2019-03-12T08:18:11.007Z,70.72
2019-03-12T08:19:10.681Z,70.72
2019-03-12T08:20:10.906Z,71.00
2019-03-12T08:21:21.695Z,71.47
2019-03-12T08:22:10.764Z,71.00
2019-03-12T08:23:10.722Z,71.00
2019-03-12T08:24:13.562Z,71.00
2019-03-12T08:25:10.724Z,71.09
2019-03-12T08:26:10.720Z,71.57
2019-03-12T08:27:10.721Z,71.00
2019-03-12T08:28:10.775Z,71.28
2019-03-12T08:29:10.733Z,71.57
2019-03-12T08:30:10.753Z,71.19
2019-03-12T08:31:10.757Z,71.47
2019-03-12T08:32:10.835Z,70.84
2019-03-12T08:33:10.799Z,71.42
2019-03-12T08:34:10.768Z,71.22
2019-03-12T08:35:10.762Z,70.75
2019-03-12T08:36:10.780Z,70.27
2019-03-12T08:37:10.860Z,70.84
2019-03-12T08:38:10.796Z,70.84
2019-03-12T08:39:10.857Z,70.37
2019-03-12T08:40:10.781Z,70.47
2019-03-12T08:41:10.788Z,69.13
2019-03-12T08:42:10.805Z,70.18
2019-03-12T08:43:11.299Z,69.99
2019-03-12T08:44:11.742Z,69.79
2019-03-12T08:45:11.188Z,69.70
2019-03-12T08:46:10.878Z,69.13
2019-03-12T08:47:10.835Z,69.42
2019-03-12T08:48:12.849Z,70.08
2019-03-12T08:49:10.861Z,69.60
2019-03-12T08:50:10.836Z,69.42
2019-03-12T08:51:10.843Z,68.94
2019-03-12T08:52:10.888Z,68.84
2019-03-12T08:53:10.856Z,68.84
2019-03-12T08:54:10.882Z,69.04
2019-03-12T08:55:10.918Z,69.42
2019-03-12T08:56:10.887Z,70.08
2019-03-12T08:57:10.916Z,69.32
2019-03-12T08:58:10.908Z,69.04
2019-03-12T08:59:10.950Z,69.04
2019-03-12T09:00:10.904Z,69.42
2019-03-12T09:01:10.901Z,68.37
2019-03-12T09:02:10.907Z,68.56
2019-03-12T09:03:10.952Z,68.75
2019-03-12T09:04:10.923Z,69.04
2019-03-12T09:05:11.254Z,68.94
2019-03-12T09:06:10.919Z,68.18
2019-03-12T09:07:10.925Z,68.94
2019-03-12T09:08:10.954Z,68.46
2019-03-12T09:09:10.966Z,68.37
2019-03-12T09:10:10.959Z,67.41
2019-03-12T09:11:10.942Z,68.37
2019-03-12T09:12:10.956Z,68.37
2019-03-12T09:13:10.983Z,68.56
2019-03-12T09:14:10.956Z,68.69
2019-03-12T09:15:11.004Z,68.40
2019-03-12T09:16:11.002Z,68.59
2019-03-12T09:17:10.977Z,67.55
2019-03-12T09:18:10.990Z,68.02
2019-03-12T09:19:10.977Z,67.93
2019-03-12T09:20:11.059Z,67.55
2019-03-12T09:21:11.002Z,67.83
2019-03-12T09:22:11.001Z,67.45
2019-03-12T09:23:11.022Z,67.16
2019-03-12T09:24:11.013Z,67.35
2019-03-12T09:25:11.861Z,67.07
2019-03-12T09:26:11.042Z,67.26
2019-03-12T09:27:11.032Z,67.07
2019-03-12T09:28:11.049Z,66.88
2019-03-12T09:29:11.063Z,67.26
2019-03-12T09:30:11.054Z,66.78
2019-03-12T09:31:11.082Z,67.10
2019-03-12T09:32:11.069Z,66.63
2019-03-12T09:33:11.051Z,66.24
2019-03-12T09:34:11.096Z,66.53
2019-03-12T09:35:11.082Z,66.24
2019-03-12T09:36:11.089Z,65.29
2019-03-12T09:37:11.387Z,63.86
2019-03-12T09:38:11.218Z,64.91
2019-03-12T09:39:11.107Z,64.72
2019-03-12T09:40:11.108Z,64.72
2019-03-12T09:41:11.169Z,63.86
2019-03-12T09:42:11.118Z,63.67
2019-03-12T09:43:11.128Z,63.29
2019-03-12T09:44:11.129Z,63.00
2019-03-12T09:45:11.318Z,62.72
2019-03-12T09:46:11.136Z,62.52
2019-03-12T09:47:11.190Z,62.43
2019-03-12T09:48:11.191Z,62.05
2019-03-12T09:49:11.155Z,62.15
2019-03-12T09:50:11.159Z,62.34
2019-03-12T09:51:11.171Z,62.27
2019-03-12T09:52:11.192Z,62.27
2019-03-12T09:53:11.189Z,62.75
2019-03-12T09:54:11.211Z,62.37
2019-03-12T09:55:11.273Z,62.37
2019-03-12T09:56:11.189Z,61.70
2019-03-12T09:57:11.204Z,61.80
2019-03-12T09:58:11.235Z,61.13
2019-03-12T09:59:11.255Z,60.65
2019-03-12T10:00:16.288Z,60.75
2019-03-12T10:01:11.248Z,61.32
2019-03-12T10:02:11.231Z,60.75
2019-03-12T10:03:11.276Z,60.17
2019-03-12T10:04:11.347Z,60.84
2019-03-12T10:05:11.261Z,60.27
2019-03-12T10:06:11.275Z,59.89
2019-03-12T10:07:11.304Z,59.82
2019-03-12T10:08:11.285Z,60.21
2019-03-12T10:09:11.367Z,59.82
2019-03-12T10:10:11.274Z,57.92
2019-03-12T10:11:11.295Z,58.29
2019-03-12T10:12:11.306Z,58.20
2019-03-12T10:13:12.208Z,58.29
2019-03-12T10:14:11.325Z,58.29
2019-03-12T10:15:11.377Z,58.48
2019-03-12T10:16:11.418Z,58.48
2019-03-12T10:17:11.652Z,57.98
2019-03-12T10:18:11.365Z,58.20
2019-03-12T10:19:11.343Z,58.39
2019-03-12T10:20:11.349Z,58.39
2019-03-12T10:21:11.370Z,58.29
2019-03-12T10:22:11.473Z,57.15
2019-03-12T10:23:11.364Z,57.03
2019-03-12T10:24:11.370Z,57.06
2019-03-12T10:25:11.477Z,57.53
2019-03-12T10:26:11.367Z,57.34
2019-03-12T10:27:11.399Z,57.92
2019-03-12T10:28:11.416Z,57.24
2019-03-12T10:29:11.401Z,58.11
2019-03-12T10:30:11.695Z,57.53
2019-03-12T10:31:11.467Z,57.24
2019-03-12T10:32:11.409Z,56.77
2019-03-12T10:33:11.443Z,56.48
2019-03-12T10:34:11.646Z,56.48
2019-03-12T10:35:11.434Z,56.20
2019-03-12T10:36:11.591Z,56.20
2019-03-12T10:37:13.945Z,56.67
2019-03-12T10:38:11.480Z,56.48
2019-03-12T10:39:11.541Z,56.01
2019-03-12T10:40:11.466Z,56.10
2019-03-12T10:41:11.548Z,55.72
2019-03-12T10:42:11.509Z,55.75
2019-03-12T10:43:11.637Z,55.36
2019-03-12T10:44:11.494Z,55.08
2019-03-12T10:45:11.568Z,55.27
2019-03-12T10:46:11.660Z,55.36
2019-03-12T10:47:11.892Z,55.55
2019-03-12T10:48:11.711Z,55.36
2019-03-12T10:49:11.652Z,55.46
2019-03-12T10:50:11.546Z,54.79
2019-03-12T10:51:13.075Z,54.50
2019-03-12T10:52:11.581Z,54.50
2019-03-12T10:53:11.591Z,54.32
2019-03-12T10:54:11.663Z,55.18
2019-03-12T10:55:13.405Z,54.60
2019-03-12T10:56:11.778Z,54.50
2019-03-12T10:57:11.783Z,54.03
2019-03-12T10:58:11.617Z,54.50
2019-03-12T10:59:11.677Z,53.84
2019-03-12T11:00:11.629Z,54.50
2019-03-12T11:01:11.627Z,55.08
2019-03-12T11:02:11.617Z,54.50
2019-03-12T11:03:11.685Z,54.13
2019-03-12T11:04:11.616Z,53.74
2019-03-12T11:05:11.639Z,52.57
2019-03-12T11:06:11.753Z,53.05
2019-03-12T11:07:16.558Z,53.05
2019-03-12T11:08:11.643Z,54.10
2019-03-12T11:09:11.686Z,54.48
2019-03-12T11:10:11.711Z,54.29
2019-03-12T11:11:11.656Z,54.38
2019-03-12T11:12:11.668Z,54.10
2019-03-12T11:13:14.689Z,54.38
2019-03-12T11:14:11.694Z,54.29
2019-03-12T11:15:11.681Z,54.57
2019-03-12T11:16:11.697Z,54.67
2019-03-12T11:17:11.724Z,54.29
2019-03-12T11:18:11.731Z,53.05
2019-03-12T11:19:11.711Z,54.29
2019-03-12T11:20:11.704Z,53.91
2019-03-12T11:21:11.732Z,53.81
2019-03-12T11:22:11.747Z,53.33
2019-03-12T11:23:11.854Z,52.38
2019-03-12T11:24:11.732Z,52.19
2019-03-12T11:25:11.747Z,52.28
2019-03-12T11:26:11.752Z,51.71
2019-03-12T11:27:11.758Z,50.85
2019-03-12T11:28:11.789Z,51.62
2019-03-12T11:29:11.804Z,51.52
2019-03-12T11:30:11.771Z,52.09
2019-03-12T11:31:11.849Z,52.50
2019-03-12T11:32:11.781Z,52.50
2019-03-12T11:33:11.784Z,52.12
2019-03-12T11:34:11.818Z,52.31
2019-03-12T11:35:11.868Z,52.40
2019-03-12T11:36:11.804Z,51.26
2019-03-12T11:37:11.975Z,51.54
2019-03-12T11:38:11.940Z,51.17
2019-03-12T11:39:12.261Z,50.98
2019-03-12T11:40:13.491Z,50.98
2019-03-12T11:41:11.837Z,50.88
2019-03-12T11:42:12.019Z,51.26
2019-03-12T11:43:11.857Z,51.26
2019-03-12T11:44:11.882Z,51.17
2019-03-12T11:45:16.036Z,51.54
2019-03-12T11:46:11.886Z,50.98
2019-03-12T11:47:11.893Z,51.26
2019-03-12T11:48:11.914Z,50.78
2019-03-12T11:49:11.904Z,51.45
2019-03-12T11:50:12.241Z,51.14
2019-03-12T11:51:12.160Z,51.07
2019-03-12T11:52:11.989Z,51.07
2019-03-12T11:53:12.002Z,50.88
2019-03-12T11:54:11.926Z,51.64
2019-03-12T11:55:11.959Z,51.45
2019-03-12T11:56:11.954Z,51.17
2019-03-12T11:57:11.945Z,51.14
2019-03-12T11:58:12.001Z,51.04
2019-03-12T11:59:12.190Z,51.17
2019-03-12T12:00:12.062Z,50.88
2019-03-12T12:01:12.055Z,51.17
2019-03-12T12:02:12.040Z,50.78
2019-03-12T12:03:11.979Z,50.21
2019-03-12T12:04:12.001Z,50.21
2019-03-12T12:05:12.065Z,50.12
2019-03-12T12:06:12.013Z,50.12
2019-03-12T12:07:12.156Z,50.40
2019-03-12T12:08:12.062Z,49.73
2019-03-12T12:09:12.056Z,49.54
2019-03-12T12:10:12.129Z,49.64
2019-03-12T12:11:12.052Z,49.54
2019-03-12T12:12:12.056Z,49.73
2019-03-12T12:13:12.108Z,49.64
2019-03-12T12:14:12.072Z,49.28
2019-03-12T12:15:12.094Z,49.57
2019-03-12T12:16:12.179Z,49.09
2019-03-12T12:17:12.089Z,48.90
2019-03-12T12:18:12.115Z,48.61
2019-03-12T12:19:12.120Z,49.09
2019-03-12T12:20:12.107Z,48.90
2019-03-12T12:21:12.110Z,49.47
2019-03-12T12:22:12.122Z,47.27
2019-03-12T12:23:12.138Z,47.56
2019-03-12T12:24:12.123Z,47.39
2019-03-12T12:25:12.158Z,47.27
2019-03-12T12:26:12.169Z,47.27
2019-03-12T12:27:12.143Z,47.39
2019-03-12T12:28:12.196Z,46.89
2019-03-12T12:29:12.148Z,47.37
2019-03-12T12:30:12.160Z,47.27
2019-03-12T12:31:12.161Z,46.72
2019-03-12T12:32:12.196Z,47.01
2019-03-12T12:33:12.203Z,46.25
2019-03-12T12:34:12.302Z,45.48
2019-03-12T12:35:12.205Z,46.34
2019-03-12T12:36:12.217Z,46.70
2019-03-12T12:37:13.899Z,46.13
2019-03-12T12:38:12.224Z,45.39
2019-03-12T12:39:12.274Z,44.53
2019-03-12T12:40:12.226Z,45.46
2019-03-12T12:41:12.745Z,45.46
2019-03-12T12:42:12.231Z,45.17
2019-03-12T12:43:12.284Z,45.94
2019-03-12T12:44:12.258Z,46.22
2019-03-12T12:45:12.336Z,46.22
2019-03-12T12:46:12.285Z,45.94
2019-03-12T12:47:12.279Z,45.84
2019-03-12T12:48:12.283Z,46.03
2019-03-12T12:49:12.301Z,46.22
2019-03-12T12:50:12.408Z,46.89
2019-03-12T12:51:12.329Z,46.01
2019-03-12T12:52:13.090Z,46.48